Time;durP1;ratioP1;P1;durP2;ratioP2;P2;SDS_P1;SDS_P2;PMS_P1;PMS_P2;Temp;Humidity;BMP_temperature;BMP_pressure;BME280_temperature;BME280_humidity;BME280_pressure;Samples;Min_cycle;Max_cycle;Signal;HPM_P1;HPM_P2
2021/08/16 00:01:18;;;;;;;3.47;2.83;;;27.90;46.90;;;;;;5059105;28;20443;-83
2021/08/16 00:03:46;;;;;;;3.30;3.00;;;27.90;46.90;;;;;;5073366;28;20468;-83
2021/08/16 00:06:14;;;;;;;3.00;2.80;;;27.90;46.90;;;;;;5072954;28;20957;-82
2021/08/16 00:08:41;;;;;;;2.50;2.40;;;27.80;46.90;;;;;;5072529;28;20489;-82
2021/08/16 00:11:09;;;;;;;2.57;2.37;;;27.80;46.90;;;;;;5073015;28;20440;-82
2021/08/16 00:13:38;;;;;;;2.60;2.50;;;27.80;46.90;;;;;;5072983;28;20480;-82
2021/08/16 00:16:06;;;;;;;2.80;2.60;;;27.80;47.00;;;;;;5073312;28;20469;-82
2021/08/16 00:18:34;;;;;;;2.77;2.57;;;27.80;47.00;;;;;;5072926;28;20496;-83
2021/08/16 00:21:02;;;;;;;2.80;2.60;;;27.80;47.00;;;;;;5072791;28;20469;-83
2021/08/16 00:23:30;;;;;;;2.60;2.40;;;27.70;47.00;;;;;;5073141;28;20473;-82
2021/08/16 00:25:58;;;;;;;2.40;2.30;;;27.70;47.00;;;;;;5073141;28;20533;-82
2021/08/16 00:28:26;;;;;;;2.63;2.30;;;27.70;46.90;;;;;;5073149;28;20448;-83
2021/08/16 00:30:58;;;;;;;2.37;2.27;;;27.70;46.90;;;;;;5071838;28;20461;-83
2021/08/16 00:33:26;;;;;;;2.77;2.57;;;27.80;47.00;;;;;;5071633;28;20490;-82
2021/08/16 00:35:54;;;;;;;2.83;2.50;;;27.80;46.90;;;;;;5073211;28;20468;-82
2021/08/16 00:38:22;;;;;;;3.57;2.80;;;27.70;46.90;;;;;;5072419;28;20463;-82
2021/08/16 00:40:49;;;;;;;2.60;2.43;;;27.70;47.00;;;;;;5071579;28;20440;-82
2021/08/16 00:43:17;;;;;;;2.37;2.23;;;27.70;47.50;;;;;;5071200;28;20463;-82
2021/08/16 00:45:45;;;;;;;3.27;2.97;;;27.70;46.90;;;;;;5070823;28;20440;-82
2021/08/16 00:48:14;;;;;;;2.40;2.20;;;27.70;46.90;;;;;;5070579;28;20503;-82
2021/08/16 00:50:42;;;;;;;2.87;2.67;;;27.60;47.00;;;;;;5071385;28;20458;-82
2021/08/16 00:53:10;;;;;;;3.07;2.77;;;27.60;47.20;;;;;;5065913;28;20457;-82
2021/08/16 00:55:37;;;;;;;2.33;2.13;;;27.60;47.20;;;;;;5070962;28;20412;-82
2021/08/16 00:58:05;;;;;;;2.90;2.70;;;27.60;47.30;;;;;;5069973;28;21131;-82
2021/08/16 01:00:33;;;;;;;2.30;2.20;;;27.60;47.30;;;;;;5070554;28;20462;-82
2021/08/16 01:03:01;;;;;;;3.00;2.70;;;27.50;47.30;;;;;;5070922;28;20483;-82
2021/08/16 01:05:34;;;;;;;2.70;2.37;;;27.50;47.40;;;;;;5069596;28;20437;-82
2021/08/16 01:08:02;;;;;;;2.63;2.47;;;27.50;47.40;;;;;;5070137;28;20451;-82
2021/08/16 01:10:31;;;;;;;2.47;2.27;;;27.40;47.50;;;;;;5069604;28;20584;-82
2021/08/16 01:12:59;;;;;;;4.70;2.80;;;27.40;47.60;;;;;;5069920;28;20506;-82
2021/08/16 01:15:28;;;;;;;3.10;2.70;;;27.40;47.50;;;;;;5071100;28;20428;-82
2021/08/16 01:17:56;;;;;;;2.70;2.50;;;27.40;47.60;;;;;;5070483;28;20496;-82
2021/08/16 01:20:24;;;;;;;2.80;2.60;;;27.30;47.60;;;;;;5069904;28;20538;-82
2021/08/16 01:22:59;;;;;;;3.33;2.40;;;27.30;47.80;;;;;;5069575;28;20864;-82
2021/08/16 01:25:27;;;;;;;3.67;2.60;;;27.20;48.00;;;;;;5070385;28;20504;-82
2021/08/16 01:27:57;;;;;;;2.63;2.43;;;27.20;48.00;;;;;;5071081;28;20450;-82
2021/08/16 01:30:25;;;;;;;3.17;2.60;;;27.20;48.00;;;;;;5070595;28;20458;-82
2021/08/16 01:32:53;;;;;;;2.67;2.47;;;27.20;47.90;;;;;;5070643;28;20838;-82
2021/08/16 01:35:21;;;;;;;2.63;2.43;;;27.30;47.90;;;;;;5070847;28;20836;-82
2021/08/16 01:37:50;;;;;;;2.80;2.40;;;27.30;47.80;;;;;;5071007;28;20473;-83
2021/08/16 01:40:18;;;;;;;2.53;2.33;;;27.30;47.70;;;;;;5073490;28;20452;-83
2021/08/16 01:42:46;;;;;;;2.27;2.07;;;27.30;47.70;;;;;;5074008;28;20451;-82
2021/08/16 01:45:15;;;;;;;4.43;2.63;;;27.30;47.80;;;;;;5075316;28;20464;-83
2021/08/16 01:47:43;;;;;;;2.80;2.60;;;27.20;47.70;;;;;;5074243;28;20460;-82
2021/08/16 01:50:11;;;;;;;3.10;2.80;;;27.20;47.70;;;;;;5074858;28;20533;-83
2021/08/16 01:52:41;;;;;;;2.60;2.40;;;27.20;47.70;;;;;;5074059;28;20418;-82
2021/08/16 01:55:09;;;;;;;2.70;2.50;;;27.20;47.80;;;;;;5074057;28;20525;-81
2021/08/16 01:57:37;;;;;;;2.80;2.50;;;27.10;47.80;;;;;;5073828;28;20508;-81
2021/08/16 02:00:06;;;;;;;3.63;2.57;;;27.10;47.80;;;;;;5074200;28;20541;-81
2021/08/16 02:02:35;;;;;;;2.53;2.30;;;27.20;47.80;;;;;;5074205;28;20461;-81
2021/08/16 02:05:04;;;;;;;2.87;2.67;;;27.10;47.70;;;;;;5073746;28;20470;-81
2021/08/16 02:07:32;;;;;;;4.07;2.63;;;27.10;47.80;;;;;;5073520;28;20448;-81
2021/08/16 02:10:00;;;;;;;2.53;2.33;;;27.10;47.80;;;;;;5066938;28;20472;-81
2021/08/16 02:12:27;;;;;;;3.90;2.60;;;27.00;47.80;;;;;;5072354;28;20420;-82
2021/08/16 02:14:55;;;;;;;3.03;2.63;;;27.00;47.90;;;;;;5073633;28;20445;-82
2021/08/16 02:17:23;;;;;;;2.40;2.30;;;27.10;48.00;;;;;;5075518;28;20469;-81
2021/08/16 02:19:52;;;;;;;2.37;2.20;;;27.00;47.90;;;;;;5072192;28;20454;-81
2021/08/16 02:22:20;;;;;;;2.70;2.40;;;27.00;47.90;;;;;;5075250;28;20465;-81
2021/08/16 02:24:48;;;;;;;2.67;2.47;;;27.00;47.90;;;;;;5081535;28;20453;-81
2021/08/16 02:27:16;;;;;;;2.70;2.50;;;27.00;47.80;;;;;;5082434;28;20525;-81
2021/08/16 02:29:44;;;;;;;2.90;2.33;;;27.00;47.80;;;;;;5073344;28;20492;-81
2021/08/16 02:32:11;;;;;;;2.20;2.10;;;27.00;47.80;;;;;;5086407;28;20686;-81
2021/08/16 02:34:39;;;;;;;3.03;2.73;;;27.00;47.70;;;;;;5082440;28;20445;-81
2021/08/16 02:37:08;;;;;;;2.40;2.20;;;27.00;47.70;;;;;;5075498;28;20436;-81
2021/08/16 02:39:36;;;;;;;2.43;2.33;;;27.00;47.70;;;;;;5076471;28;20600;-81
2021/08/16 02:42:04;;;;;;;2.73;2.53;;;27.00;47.50;;;;;;5077660;28;20467;-81
2021/08/16 02:44:32;;;;;;;2.73;2.53;;;27.00;47.60;;;;;;5072332;28;20466;-81
2021/08/16 02:47:00;;;;;;;2.63;2.43;;;27.00;47.60;;;;;;5074104;28;20718;-81
2021/08/16 02:49:28;;;;;;;2.67;2.50;;;27.00;47.60;;;;;;5074390;28;20541;-81
2021/08/16 02:51:55;;;;;;;2.80;2.60;;;27.00;47.60;;;;;;5075300;28;20419;-81
2021/08/16 02:54:24;;;;;;;3.83;2.60;;;27.00;47.40;;;;;;5078995;28;20424;-81
2021/08/16 02:56:52;;;;;;;2.50;2.30;;;27.00;47.20;;;;;;5078246;28;20444;-81
2021/08/16 02:59:20;;;;;;;2.47;2.27;;;27.10;47.50;;;;;;5056606;28;20464;-81
2021/08/16 03:01:48;;;;;;;2.50;2.40;;;27.00;47.20;;;;;;5051588;28;20479;-81
2021/08/16 03:04:16;;;;;;;2.47;2.27;;;27.00;47.10;;;;;;5051930;28;20508;-81
2021/08/16 03:06:43;;;;;;;4.20;2.40;;;27.00;47.20;;;;;;5051767;28;20461;-81
2021/08/16 03:09:11;;;;;;;2.50;2.30;;;27.00;47.30;;;;;;5051733;28;20481;-82
2021/08/16 03:11:40;;;;;;;2.57;2.37;;;27.00;47.20;;;;;;5052147;28;20474;-82
2021/08/16 03:14:08;;;;;;;3.10;2.60;;;27.00;47.30;;;;;;5052275;28;20482;-81
2021/08/16 03:16:36;;;;;;;3.13;2.60;;;27.00;47.30;;;;;;5052009;28;20413;-81
2021/08/16 03:19:04;;;;;;;3.20;2.00;;;27.00;47.10;;;;;;5051223;28;20473;-83
2021/08/16 03:21:31;;;;;;;3.70;2.77;;;27.10;47.20;;;;;;5065502;28;20501;-82
2021/08/16 03:23:59;;;;;;;4.17;2.70;;;27.00;47.10;;;;;;5071605;28;20507;-82
2021/08/16 03:26:27;;;;;;;3.87;2.70;;;27.00;47.20;;;;;;5071854;28;20426;-81
2021/08/16 03:28:56;;;;;;;2.90;2.63;;;27.00;47.00;;;;;;5071053;28;20704;-81
2021/08/16 03:31:24;;;;;;;2.53;2.33;;;27.00;47.20;;;;;;5069285;28;20448;-82
2021/08/16 03:33:53;;;;;;;2.83;2.60;;;27.00;47.10;;;;;;5071712;28;20537;-80
2021/08/16 03:36:21;;;;;;;3.10;2.30;;;27.00;47.10;;;;;;5071725;28;20467;-81
2021/08/16 03:38:49;;;;;;;2.20;2.10;;;27.00;47.10;;;;;;5071259;28;20500;-82
2021/08/16 03:41:16;;;;;;;2.77;2.50;;;27.00;46.90;;;;;;5072112;28;20474;-81
2021/08/16 03:43:44;;;;;;;1.93;1.83;;;27.00;47.10;;;;;;5071433;28;20473;-82
2021/08/16 03:46:13;;;;;;;2.30;2.10;;;27.00;47.10;;;;;;5071723;28;20477;-82
2021/08/16 03:48:47;;;;;;;2.83;2.60;;;27.00;46.90;;;;;;5071415;28;20545;-81
2021/08/16 03:51:15;;;;;;;4.60;3.07;;;26.90;47.10;;;;;;5071648;28;20749;-81
2021/08/16 03:53:43;;;;;;;3.20;2.90;;;26.90;47.10;;;;;;5071735;28;20467;-82
2021/08/16 03:56:11;;;;;;;3.80;2.50;;;26.90;47.20;;;;;;5071520;28;20484;-81
2021/08/16 03:58:41;;;;;;;2.93;2.63;;;26.90;47.10;;;;;;5071363;28;20515;-82
2021/08/16 04:01:09;;;;;;;2.70;2.50;;;26.90;47.00;;;;;;5073240;28;20446;-80
2021/08/16 04:03:41;;;;;;;3.80;2.70;;;26.90;46.90;;;;;;5083916;28;20443;-81
2021/08/16 04:06:09;;;;;;;2.60;2.03;;;26.90;47.00;;;;;;5082429;28;20442;-81
2021/08/16 04:08:43;;;;;;;2.57;2.37;;;26.90;46.70;;;;;;5077971;28;20468;-81
2021/08/16 04:11:11;;;;;;;4.73;2.40;;;26.90;46.80;;;;;;5071871;28;20388;-80
2021/08/16 04:13:39;;;;;;;7.37;2.80;;;26.90;46.80;;;;;;5072087;28;20396;-81
2021/08/16 04:16:07;;;;;;;4.73;2.60;;;26.90;46.80;;;;;;5071530;28;20464;-80
2021/08/16 04:18:36;;;;;;;3.17;2.30;;;26.90;46.90;;;;;;5071360;28;20432;-80
2021/08/16 04:21:06;;;;;;;3.73;2.40;;;26.90;46.80;;;;;;5072208;28;20442;-80
2021/08/16 04:23:36;;;;;;;3.87;2.53;;;26.90;46.60;;;;;;5072566;28;20982;-80
2021/08/16 04:26:04;;;;;;;6.00;2.93;;;26.90;46.40;;;;;;5072244;28;20463;-80
2021/08/16 04:28:32;;;;;;;3.17;2.20;;;26.90;46.60;;;;;;5071898;28;20519;-81
2021/08/16 04:30:59;;;;;;;4.70;2.80;;;26.90;46.90;;;;;;5071849;28;20499;-80
2021/08/16 04:33:27;;;;;;;5.03;2.80;;;26.80;46.70;;;;;;5072069;28;20480;-80
2021/08/16 04:35:55;;;;;;;6.50;2.60;;;26.90;46.80;;;;;;5072137;28;20436;-80
2021/08/16 04:38:24;;;;;;;4.57;2.53;;;26.90;46.80;;;;;;5072029;28;20526;-80
2021/08/16 04:40:52;;;;;;;4.33;2.50;;;26.80;46.60;;;;;;5072264;28;20472;-80
2021/08/16 04:43:22;;;;;;;3.33;2.53;;;26.80;46.60;;;;;;5072032;28;20536;-80
2021/08/16 04:45:50;;;;;;;7.43;2.50;;;26.90;46.70;;;;;;5072169;28;20415;-81
2021/08/16 04:48:18;;;;;;;4.07;2.60;;;26.80;46.50;;;;;;5072970;28;20408;-81
2021/08/16 04:50:46;;;;;;;4.63;3.00;;;26.90;46.60;;;;;;5073069;28;20437;-81
2021/08/16 04:53:13;;;;;;;4.83;2.80;;;26.90;46.60;;;;;;5072793;28;20448;-81
2021/08/16 04:55:42;;;;;;;5.37;2.97;;;26.80;46.60;;;;;;5072518;28;20508;-81
2021/08/16 04:58:10;;;;;;;4.70;2.50;;;26.90;46.70;;;;;;5072348;28;20505;-81
2021/08/16 05:00:41;;;;;;;8.60;2.90;;;26.90;46.70;;;;;;5072361;28;20571;-81
2021/08/16 05:03:09;;;;;;;3.53;2.53;;;26.80;46.40;;;;;;5072923;28;20515;-81
2021/08/16 05:05:37;;;;;;;3.90;2.23;;;26.80;46.50;;;;;;5073280;28;20495;-81
2021/08/16 05:08:06;;;;;;;9.17;3.37;;;26.80;46.70;;;;;;5072359;28;20440;-81
2021/08/16 05:10:33;;;;;;;5.70;2.90;;;26.80;46.70;;;;;;5065500;28;20491;-81
2021/08/16 05:13:03;;;;;;;4.17;2.90;;;26.80;46.60;;;;;;5072458;28;20447;-81
2021/08/16 05:15:31;;;;;;;6.63;2.93;;;26.80;46.60;;;;;;5074092;28;20759;-81
2021/08/16 05:18:02;;;;;;;4.60;2.50;;;26.90;46.60;;;;;;5076331;28;20411;-81
2021/08/16 05:20:31;;;;;;;3.77;2.77;;;26.90;46.60;;;;;;5076367;28;20509;-81
2021/08/16 05:22:59;;;;;;;5.07;2.57;;;26.80;46.50;;;;;;5076465;28;20470;-81
2021/08/16 05:25:27;;;;;;;7.53;2.80;;;26.80;46.50;;;;;;5076031;28;20495;-81
2021/08/16 05:27:54;;;;;;;3.90;2.63;;;26.90;46.50;;;;;;5075780;28;20456;-81
2021/08/16 05:30:24;;;;;;;5.37;2.90;;;26.90;46.50;;;;;;5075600;28;20484;-81
2021/08/16 05:32:52;;;;;;;7.23;3.10;;;26.90;46.50;;;;;;5076437;28;20428;-81
2021/08/16 05:35:20;;;;;;;3.10;2.73;;;26.90;46.30;;;;;;5075570;28;20469;-81
2021/08/16 05:37:48;;;;;;;5.53;2.53;;;26.90;46.50;;;;;;5075109;28;20491;-81
2021/08/16 05:40:17;;;;;;;3.20;2.87;;;26.90;46.60;;;;;;5075508;28;20485;-81
2021/08/16 05:42:45;;;;;;;4.63;2.80;;;26.90;46.50;;;;;;5074766;28;20468;-81
2021/08/16 05:45:13;;;;;;;4.23;2.60;;;26.90;46.30;;;;;;5075164;28;20533;-81
2021/08/16 05:47:42;;;;;;;5.00;2.97;;;26.90;46.50;;;;;;5074908;28;20528;-81
2021/08/16 05:50:11;;;;;;;4.53;2.63;;;27.00;46.40;;;;;;5075826;28;20531;-81
2021/08/16 05:52:39;;;;;;;4.80;2.77;;;26.90;46.20;;;;;;5076774;28;20418;-81
2021/08/16 05:55:08;;;;;;;4.03;2.50;;;26.90;46.10;;;;;;5075833;28;20437;-81
2021/08/16 05:57:36;;;;;;;3.83;2.37;;;27.00;46.40;;;;;;5074942;28;20423;-81
2021/08/16 06:00:07;;;;;;;3.03;2.47;;;26.90;46.30;;;;;;5074666;28;20463;-81
2021/08/16 06:02:35;;;;;;;5.43;2.60;;;26.90;46.60;;;;;;5071239;28;20520;-82
2021/08/16 06:05:05;;;;;;;3.60;2.60;;;26.90;46.70;;;;;;5070303;28;20412;-81
2021/08/16 06:07:33;;;;;;;3.37;2.70;;;26.90;46.70;;;;;;5066516;28;20465;-82
2021/08/16 06:10:03;;;;;;;3.13;2.83;;;26.80;46.60;;;;;;5067233;28;20440;-81
2021/08/16 06:12:31;;;;;;;5.87;2.80;;;26.80;46.70;;;;;;5057750;28;20427;-81
2021/08/16 06:15:00;;;;;;;7.40;3.17;;;26.80;47.00;;;;;;5054392;28;20468;-81
2021/08/16 06:17:29;;;;;;;4.67;2.90;;;26.80;46.70;;;;;;5064761;28;20427;-81
2021/08/16 06:19:57;;;;;;;4.30;3.00;;;26.90;46.80;;;;;;5073355;28;20466;-81
2021/08/16 06:22:26;;;;;;;4.17;2.63;;;26.90;46.80;;;;;;5073397;28;20645;-81
2021/08/16 06:24:54;;;;;;;5.97;2.97;;;26.90;47.00;;;;;;5073767;28;20524;-81
2021/08/16 06:27:22;;;;;;;2.93;2.60;;;26.90;46.70;;;;;;5060500;28;20939;-81
2021/08/16 06:29:50;;;;;;;6.90;3.10;;;26.90;47.00;;;;;;5053864;28;20441;-81
2021/08/16 06:32:18;;;;;;;4.73;2.77;;;26.90;47.00;;;;;;5072323;28;20430;-81
2021/08/16 06:34:45;;;;;;;5.40;3.20;;;26.90;47.10;;;;;;5074651;28;20558;-80
2021/08/16 06:37:13;;;;;;;4.83;3.00;;;26.90;47.00;;;;;;5085549;28;20422;-82
2021/08/16 06:39:43;;;;;;;5.47;2.90;;;27.00;46.90;;;;;;5075170;28;20465;-82
2021/08/16 06:42:11;;;;;;;5.10;3.07;;;27.00;47.10;;;;;;5071566;28;20432;-81
2021/08/16 06:44:39;;;;;;;5.23;3.20;;;27.00;47.00;;;;;;5070567;28;20475;-82
2021/08/16 06:47:07;;;;;;;5.30;3.07;;;27.00;47.50;;;;;;5066186;28;20438;-81
2021/08/16 06:49:35;;;;;;;6.30;3.20;;;27.10;47.00;;;;;;5060436;28;20485;-82
2021/08/16 06:52:04;;;;;;;5.50;3.27;;;27.10;47.10;;;;;;5071520;28;20438;-82
2021/08/16 06:54:32;;;;;;;4.20;3.07;;;27.00;47.00;;;;;;5073903;28;20533;-80
2021/08/16 06:57:01;;;;;;;8.50;3.30;;;27.10;47.00;;;;;;5069837;28;20469;-80
2021/08/16 06:59:29;;;;;;;14.33;6.17;;;27.10;47.30;;;;;;5062156;28;20549;-77
2021/08/16 07:01:57;;;;;;;18.07;6.23;;;26.60;50.40;;;;;;5058655;28;20512;-79
2021/08/16 07:04:28;;;;;;;22.40;7.63;;;25.60;53.70;;;;;;5060214;28;20469;-79
2021/08/16 07:06:56;;;;;;;16.50;6.63;;;25.20;55.80;;;;;;5062160;28;20396;-79
2021/08/16 07:09:23;;;;;;;15.77;6.47;;;24.50;57.80;;;;;;5066535;28;20432;-79
2021/08/16 07:11:51;;;;;;;23.03;7.37;;;24.10;59.20;;;;;;5060318;28;20462;-78
2021/08/16 07:14:21;;;;;;;20.10;6.50;;;23.80;59.80;;;;;;5064594;28;20466;-78
2021/08/16 07:16:48;;;;;;;26.67;7.97;;;23.40;61.40;;;;;;5067225;28;20461;-78
2021/08/16 07:19:17;;;;;;;19.83;7.00;;;23.50;62.10;;;;;;5062961;28;20538;-80
2021/08/16 07:21:46;;;;;;;18.67;6.97;;;23.40;62.80;;;;;;5070539;28;20465;-78
2021/08/16 07:24:14;;;;;;;19.03;6.17;;;23.70;62.60;;;;;;5065453;28;20546;-81
2021/08/16 07:26:43;;;;;;;20.43;7.10;;;23.90;61.20;;;;;;5067276;28;20404;-79
2021/08/16 07:29:10;;;;;;;28.07;7.30;;;23.40;63.00;;;;;;5071152;28;20428;-81
2021/08/16 07:31:40;;;;;;;26.50;6.33;;;23.10;64.90;;;;;;5072514;28;20416;-79
2021/08/16 07:34:08;;;;;;;27.23;5.90;;;23.90;67.80;;;;;;5071026;28;20416;-79
2021/08/16 07:36:35;;;;;;;17.87;5.17;;;24.60;64.50;;;;;;5072160;28;20499;-79
2021/08/16 07:39:03;;;;;;;17.40;4.97;;;25.30;61.90;;;;;;5069900;28;20516;-79
2021/08/16 07:41:31;;;;;;;20.87;5.43;;;25.80;60.00;;;;;;5071659;28;20476;-79
2021/08/16 07:43:59;;;;;;;19.97;5.57;;;26.10;58.90;;;;;;5071380;28;20448;-79
2021/08/16 07:46:27;;;;;;;16.10;4.47;;;26.40;58.30;;;;;;5072308;28;20409;-79
2021/08/16 07:48:56;;;;;;;18.40;5.03;;;26.60;58.10;;;;;;5071627;28;20459;-81
2021/08/16 07:51:24;;;;;;;32.40;4.80;;;26.80;57.60;;;;;;5067497;28;20434;-80
2021/08/16 07:53:51;;;;;;;18.17;5.77;;;27.10;56.80;;;;;;5067764;28;20536;-81
2021/08/16 07:56:19;;;;;;;11.73;5.13;;;27.40;56.30;;;;;;5068997;28;20497;-79
2021/08/16 07:58:47;;;;;;;17.83;4.33;;;27.50;56.00;;;;;;5068841;28;20642;-79
2021/08/16 08:01:17;;;;;;;16.73;4.83;;;27.60;55.70;;;;;;5073312;28;20810;-79
2021/08/16 08:03:45;;;;;;;26.37;4.93;;;27.70;56.00;;;;;;5058321;28;20506;-79
2021/08/16 08:06:14;;;;;;;21.13;4.73;;;27.80;55.70;;;;;;5052198;28;20517;-79
2021/08/16 08:08:42;;;;;;;16.60;4.47;;;27.80;56.30;;;;;;5059052;28;20455;-80
2021/08/16 08:11:10;;;;;;;14.37;4.80;;;27.90;55.50;;;;;;5066246;28;20433;-80
2021/08/16 08:13:38;;;;;;;15.03;4.00;;;28.00;55.60;;;;;;5064980;28;20458;-80
2021/08/16 08:16:06;;;;;;;8.33;4.13;;;28.10;55.20;;;;;;5063587;28;20512;-79
2021/08/16 08:18:34;;;;;;;19.20;4.30;;;28.10;54.90;;;;;;5071435;28;20489;-80
2021/08/16 08:21:02;;;;;;;7.47;4.00;;;28.10;55.20;;;;;;5053554;28;20443;-79
2021/08/16 08:23:31;;;;;;;9.70;3.73;;;28.20;55.10;;;;;;5052032;28;20549;-81
2021/08/16 08:25:59;;;;;;;9.40;4.00;;;28.20;55.60;;;;;;5056242;28;21119;-79
2021/08/16 08:28:27;;;;;;;10.77;4.10;;;28.20;55.30;;;;;;5043613;28;20516;-80
2021/08/16 08:30:55;;;;;;;8.90;3.73;;;28.30;55.20;;;;;;5042401;28;20409;-81
2021/08/16 08:33:23;;;;;;;12.03;4.30;;;28.40;54.90;;;;;;5042971;28;20476;-80
2021/08/16 08:35:52;;;;;;;6.17;3.70;;;28.40;55.10;;;;;;5044779;28;20474;-81
2021/08/16 08:38:20;;;;;;;11.60;3.87;;;28.40;54.80;;;;;;5068356;28;20517;-80
2021/08/16 08:40:49;;;;;;;8.93;3.57;;;28.50;54.90;;;;;;5071077;28;20396;-81
2021/08/16 08:43:17;;;;;;;7.90;3.90;;;28.50;54.90;;;;;;5060840;28;20497;-81
2021/08/16 08:45:45;;;;;;;5.93;3.50;;;28.50;54.90;;;;;;5059516;28;20504;-79
2021/08/16 08:48:17;;;;;;;13.87;3.47;;;28.50;54.80;;;;;;5057286;28;20413;-81
2021/08/16 08:50:50;;;;;;;6.23;3.03;;;28.60;54.40;;;;;;5057725;28;20447;-82
2021/08/16 08:53:18;;;;;;;8.83;3.37;;;28.70;54.30;;;;;;5053363;28;20455;-81
2021/08/16 08:55:46;;;;;;;4.80;2.80;;;28.80;54.20;;;;;;5053701;28;20433;-81
2021/08/16 08:58:16;;;;;;;5.13;3.13;;;28.90;54.50;;;;;;5060041;28;20413;-82
2021/08/16 09:00:44;;;;;;;7.03;2.93;;;29.00;54.60;;;;;;5073200;28;20396;-83
2021/08/16 09:03:12;;;;;;;4.67;2.80;;;29.10;54.50;;;;;;5066315;28;20437;-81
2021/08/16 09:05:48;;;;;;;4.80;3.13;;;29.10;54.80;;;;;;5075365;28;20557;-81
2021/08/16 09:08:29;;;;;;;5.80;2.60;;;29.10;54.00;;;;;;5074083;28;20421;-80
2021/08/16 09:11:07;;;;;;;4.37;2.73;;;29.00;53.70;;;;;;5074226;28;20412;-81
2021/08/16 09:13:49;;;;;;;9.03;3.33;;;28.90;53.80;;;;;;5074519;28;20479;-80
2021/08/16 09:16:16;;;;;;;7.60;2.77;;;29.00;53.30;;;;;;5074489;28;20433;-81
2021/08/16 09:18:44;;;;;;;3.17;2.57;;;28.90;53.10;;;;;;5073468;28;20458;-80
2021/08/16 09:21:13;;;;;;;4.03;2.30;;;28.80;53.00;;;;;;5072441;28;20463;-81
2021/08/16 09:23:44;;;;;;;4.07;2.70;;;28.80;53.20;;;;;;5066476;28;20440;-81
2021/08/16 09:26:12;;;;;;;8.70;2.30;;;28.80;53.10;;;;;;5065829;28;20501;-80
2021/08/16 09:28:41;;;;;;;8.13;2.27;;;28.80;53.10;;;;;;5061214;28;20460;-81
2021/08/16 09:31:11;;;;;;;3.53;2.27;;;28.70;53.20;;;;;;5059820;28;20489;-80
2021/08/16 09:34:00;;;;;;;4.07;2.27;;;28.70;53.00;;;;;;5061578;28;20424;-80
2021/08/16 09:36:35;;;;;;;2.20;1.90;;;28.60;52.90;;;;;;5061007;28;20901;-81
2021/08/16 09:39:03;;;;;;;4.93;2.33;;;28.60;52.80;;;;;;5062308;28;20449;-81
2021/08/16 09:41:31;;;;;;;3.87;1.90;;;28.50;52.60;;;;;;5058823;28;20465;-81
2021/08/16 09:44:10;;;;;;;3.37;2.00;;;28.50;52.50;;;;;;5058307;28;20478;-80
2021/08/16 09:46:38;;;;;;;4.10;1.60;;;28.50;52.40;;;;;;5060002;28;20410;-80
2021/08/16 09:49:06;;;;;;;6.53;1.80;;;28.50;52.20;;;;;;5061415;28;20437;-80
2021/08/16 09:51:35;;;;;;;3.30;1.67;;;28.50;52.00;;;;;;5062041;28;20465;-80
2021/08/16 09:54:04;;;;;;;3.07;1.73;;;28.50;51.90;;;;;;5060176;28;20433;-81
2021/08/16 09:56:32;;;;;;;4.70;1.97;;;28.50;51.70;;;;;;5064551;28;20504;-80
2021/08/16 09:59:01;;;;;;;1.67;1.57;;;28.50;51.80;;;;;;5067804;28;20807;-80
2021/08/16 10:01:30;;;;;;;1.50;1.40;;;28.50;51.80;;;;;;5066816;28;20505;-79
2021/08/16 10:03:59;;;;;;;2.87;1.50;;;28.60;51.50;;;;;;5055270;28;20488;-80
2021/08/16 10:06:27;;;;;;;3.93;1.40;;;28.60;51.50;;;;;;5071671;28;20448;-81
2021/08/16 10:08:55;;;;;;;1.80;1.40;;;28.80;51.60;;;;;;5069504;28;20515;-81
2021/08/16 10:11:23;;;;;;;3.37;1.40;;;29.00;51.40;;;;;;5061883;28;20462;-79
2021/08/16 10:13:52;;;;;;;1.37;1.27;;;29.10;51.60;;;;;;5067446;28;20433;-80
2021/08/16 10:16:23;;;;;;;2.30;1.50;;;29.20;50.80;;;;;;5064653;28;20397;-81
2021/08/16 10:18:54;;;;;;;2.70;1.60;;;29.20;50.70;;;;;;5061728;28;20510;-80
2021/08/16 10:21:29;;;;;;;2.53;1.70;;;29.30;50.50;;;;;;5065431;28;20423;-80
2021/08/16 10:23:57;;;;;;;1.57;1.37;;;29.30;50.50;;;;;;5070206;28;20429;-80
2021/08/16 10:26:26;;;;;;;1.70;1.60;;;29.30;50.40;;;;;;5061388;28;20536;-79
2021/08/16 10:28:58;;;;;;;3.70;1.30;;;29.30;50.30;;;;;;5055943;28;20492;-79
2021/08/16 10:31:27;;;;;;;1.63;1.53;;;29.30;50.20;;;;;;5058158;28;20431;-80
2021/08/16 10:33:57;;;;;;;4.77;1.93;;;29.30;49.90;;;;;;5065810;28;20423;-81
2021/08/16 10:36:25;;;;;;;3.87;1.80;;;29.30;49.80;;;;;;5063603;28;20459;-81
2021/08/16 10:38:53;;;;;;;2.47;1.73;;;29.20;50.30;;;;;;5065375;28;20531;-80
2021/08/16 10:41:25;;;;;;;10.40;1.83;;;29.10;49.70;;;;;;5062975;28;20742;-80
2021/08/16 10:43:53;;;;;;;2.30;1.63;;;29.00;49.60;;;;;;5066549;28;20525;-80
2021/08/16 10:46:21;;;;;;;4.03;1.53;;;28.90;49.60;;;;;;5062033;28;20469;-80
2021/08/16 10:49:01;;;;;;;4.23;1.83;;;28.80;49.60;;;;;;5062382;28;20485;-82
2021/08/16 10:51:39;;;;;;;1.77;1.67;;;28.70;49.80;;;;;;5065000;28;20903;-80
2021/08/16 10:54:06;;;;;;;5.03;2.10;;;28.60;49.80;;;;;;5065379;28;20429;-79
2021/08/16 10:56:36;;;;;;;4.10;1.80;;;28.50;49.70;;;;;;5063786;28;20437;-80
2021/08/16 10:59:04;;;;;;;4.57;1.83;;;28.50;49.80;;;;;;5062730;28;20499;-78
2021/08/16 11:01:32;;;;;;;4.83;1.97;;;28.40;49.90;;;;;;5073527;28;20473;-79
2021/08/16 11:04:29;;;;;;;4.93;1.93;;;28.30;49.90;;;;;;5073849;28;20665;-79
2021/08/16 11:07:00;;;;;;;7.80;2.33;;;28.30;49.90;;;;;;5066436;28;20535;-79
2021/08/16 11:09:31;;;;;;;8.47;2.20;;;28.30;50.00;;;;;;5069683;28;20453;-79
2021/08/16 11:12:02;;;;;;;3.73;2.03;;;28.20;50.00;;;;;;5062649;28;20415;-79
2021/08/16 11:14:30;;;;;;;5.00;1.87;;;28.30;50.20;;;;;;5070806;28;20405;-79
2021/08/16 11:16:58;;;;;;;6.27;2.20;;;28.30;50.20;;;;;;5074305;28;20404;-79
2021/08/16 11:19:43;;;;;;;3.50;2.00;;;28.30;50.40;;;;;;5069932;28;20465;-81
2021/08/16 11:22:10;;;;;;;6.90;2.47;;;28.30;50.50;;;;;;5071462;28;20457;-80
2021/08/16 11:24:39;;;;;;;3.73;1.93;;;28.40;50.60;;;;;;5067983;28;20928;-79
2021/08/16 11:27:08;;;;;;;5.67;2.07;;;28.40;50.70;;;;;;5072712;28;20465;-79
2021/08/16 11:29:36;;;;;;;7.93;2.17;;;28.50;50.70;;;;;;5072329;28;20485;-79
2021/08/16 11:32:05;;;;;;;6.20;1.93;;;28.50;50.70;;;;;;5075027;28;20491;-80
2021/08/16 11:34:50;;;;;;;2.10;1.70;;;28.50;51.00;;;;;;5076771;28;20438;-81
2021/08/16 11:37:18;;;;;;;10.53;2.20;;;28.50;50.90;;;;;;5072232;28;20430;-80
2021/08/16 11:39:46;;;;;;;3.67;2.17;;;28.50;50.80;;;;;;5068558;28;20545;-80
2021/08/16 11:42:34;;;;;;;4.47;2.43;;;28.50;50.90;;;;;;5056715;28;20394;-79
2021/08/16 11:45:03;;;;;;;8.50;2.40;;;28.40;50.90;;;;;;5056568;28;20491;-80
2021/08/16 11:47:31;;;;;;;2.90;2.33;;;28.40;50.80;;;;;;5058089;28;20426;-80
2021/08/16 11:50:01;;;;;;;2.97;2.20;;;28.40;50.90;;;;;;5053803;28;20524;-80
2021/08/16 11:52:29;;;;;;;2.07;1.87;;;28.40;50.90;;;;;;5063765;28;20521;-80
2021/08/16 11:54:58;;;;;;;3.33;1.87;;;28.40;50.70;;;;;;5053093;28;20500;-80
2021/08/16 11:57:26;;;;;;;4.60;2.00;;;28.40;50.60;;;;;;5058971;28;20405;-80
2021/08/16 11:59:54;;;;;;;4.30;1.70;;;28.40;50.50;;;;;;5071944;28;20482;-80
2021/08/16 12:02:23;;;;;;;5.40;1.93;;;28.40;50.60;;;;;;5069680;28;20479;-80
2021/08/16 12:04:52;;;;;;;10.23;2.43;;;28.30;50.80;;;;;;5070487;28;20433;-80
2021/08/16 12:07:24;;;;;;;2.20;2.00;;;28.30;50.80;;;;;;5070820;28;20607;-80
2021/08/16 12:09:52;;;;;;;5.90;1.70;;;28.30;51.00;;;;;;5059514;28;20988;-79
2021/08/16 12:12:21;;;;;;;28.73;2.20;;;28.40;51.00;;;;;;5048398;28;20464;-80
2021/08/16 12:14:59;;;;;;;4.50;1.70;;;28.40;50.90;;;;;;5068996;28;20525;-80
2021/08/16 12:17:26;;;;;;;10.87;1.97;;;28.40;50.70;;;;;;5070611;28;20473;-79
2021/08/16 12:20:01;;;;;;;15.20;1.77;;;28.40;50.50;;;;;;5069043;28;20492;-80
2021/08/16 12:22:30;;;;;;;8.87;1.90;;;28.40;50.60;;;;;;5069771;28;20471;-80
2021/08/16 12:25:03;;;;;;;5.17;2.10;;;28.30;50.50;;;;;;5068802;28;20732;-79
2021/08/16 12:27:31;;;;;;;2.27;1.60;;;28.40;50.60;;;;;;5069661;28;20504;-80
2021/08/16 12:29:59;;;;;;;5.27;2.40;;;28.40;50.40;;;;;;5069192;28;20465;-80
2021/08/16 12:32:28;;;;;;;4.10;1.97;;;28.40;50.40;;;;;;5067724;28;20447;-79
2021/08/16 12:34:58;;;;;;;4.57;1.63;;;28.40;50.20;;;;;;5066655;28;20473;-79
2021/08/16 12:37:26;;;;;;;5.77;2.10;;;28.40;50.10;;;;;;5065633;28;20655;-80
2021/08/16 12:40:05;;;;;;;3.77;1.93;;;28.50;50.10;;;;;;5069151;28;20552;-79
2021/08/16 12:42:33;;;;;;;3.57;1.70;;;28.40;50.00;;;;;;5069504;28;20490;-80
2021/08/16 12:45:01;;;;;;;3.37;2.00;;;28.50;49.80;;;;;;5067253;28;20460;-80
2021/08/16 12:47:32;;;;;;;3.43;1.97;;;28.50;49.70;;;;;;5067363;28;20544;-79
2021/08/16 12:50:00;;;;;;;3.17;1.90;;;28.50;49.70;;;;;;5069145;28;20465;-79
2021/08/16 12:52:28;;;;;;;2.80;1.87;;;28.50;49.60;;;;;;5062040;28;20472;-79
2021/08/16 12:54:57;;;;;;;6.70;2.30;;;28.60;49.50;;;;;;5068274;28;20467;-79